Time;durP1;ratioP1;P1;durP2;ratioP2;P2;SDS_P1;SDS_P2;PMS_P1;PMS_P2;Temp;Humidity;BMP_temperature;BMP_pressure;BME280_temperature;BME280_humidity;BME280_pressure;Samples;Min_cycle;Max_cycle;Signal;HPM_P1;HPM_P2
2022/12/30 04:00:49;;;;;;;2.30;0.80;;;8.40;84.50;;;;;;6064195;23;20418;31
2022/12/30 04:03:17;;;;;;;1.50;0.70;;;8.30;84.50;;;;;;4974898;28;20454;-75
2022/12/30 04:05:45;;;;;;;1.93;0.70;;;8.20;85.10;;;;;;4976621;28;20477;-75
2022/12/30 04:08:12;;;;;;;1.73;0.67;;;8.20;85.00;;;;;;4976196;28;20959;-76
2022/12/30 04:10:38;;;;;;;1.60;0.70;;;8.20;84.90;;;;;;4976359;28;20460;-75
2022/12/30 04:13:05;;;;;;;1.50;0.60;;;8.10;85.40;;;;;;4976556;28;20443;-75
2022/12/30 04:15:32;;;;;;;1.60;0.70;;;7.80;85.70;;;;;;4976961;28;20451;-75
2022/12/30 04:17:58;;;;;;;1.50;0.60;;;7.70;86.30;;;;;;4976010;28;20828;-75
2022/12/30 04:20:27;;;;;;;1.50;0.70;;;7.50;86.90;;;;;;4976222;28;20513;-75
2022/12/30 04:22:57;;;;;;;1.67;0.83;;;7.20;87.70;;;;;;4976251;28;20457;-75
2022/12/30 04:25:23;;;;;;;2.17;0.70;;;7.30;88.30;;;;;;4976120;28;20486;-75
2022/12/30 04:27:50;;;;;;;1.60;0.70;;;7.30;88.00;;;;;;4976186;28;20574;-76
2022/12/30 04:30:17;;;;;;;1.40;0.60;;;7.20;88.00;;;;;;4976100;28;20501;-75
2022/12/30 04:32:44;;;;;;;2.20;0.73;;;7.10;88.20;;;;;;4975736;28;21010;-75
2022/12/30 04:35:10;;;;;;;1.70;0.70;;;7.10;88.60;;;;;;4976076;28;20447;-75
2022/12/30 04:37:38;;;;;;;1.50;0.63;;;6.80;89.20;;;;;;4975985;28;20515;-75
2022/12/30 04:40:06;;;;;;;1.73;0.60;;;6.80;89.60;;;;;;4975604;28;20459;-75
2022/12/30 04:42:33;;;;;;;1.50;0.70;;;6.70;89.90;;;;;;4975608;28;20470;-75
2022/12/30 04:44:59;;;;;;;1.50;0.70;;;6.80;89.80;;;;;;4975750;28;20553;-75
2022/12/30 04:47:26;;;;;;;1.60;0.70;;;6.90;89.40;;;;;;4975696;28;20471;-75
2022/12/30 04:49:53;;;;;;;2.20;0.67;;;7.00;89.20;;;;;;4975717;28;20501;-75
2022/12/30 04:52:19;;;;;;;1.63;0.70;;;7.10;88.50;;;;;;4975564;28;20478;-75
2022/12/30 04:54:47;;;;;;;1.50;0.67;;;7.00;88.20;;;;;;4975910;28;20450;-75
2022/12/30 04:57:14;;;;;;;1.50;0.60;;;7.10;88.50;;;;;;4975607;28;20443;-75
2022/12/30 04:59:41;;;;;;;1.60;0.60;;;7.10;88.20;;;;;;4975337;28;20943;-76
2022/12/30 05:02:07;;;;;;;1.80;0.70;;;7.00;88.60;;;;;;4975183;28;20533;-75
2022/12/30 05:04:35;;;;;;;1.60;0.60;;;6.80;89.20;;;;;;4975369;28;20483;-75
2022/12/30 05:07:03;;;;;;;1.50;0.60;;;6.90;89.40;;;;;;4975160;28;20446;-75
2022/12/30 05:09:30;;;;;;;1.43;0.60;;;6.90;89.00;;;;;;4975068;28;20947;-75
2022/12/30 05:11:58;;;;;;;2.13;0.60;;;6.90;89.00;;;;;;4974957;28;20879;-75
2022/12/30 05:14:24;;;;;;;1.50;0.60;;;6.80;89.10;;;;;;4975038;28;20447;-75
2022/12/30 05:16:51;;;;;;;1.50;0.60;;;6.90;89.30;;;;;;4975235;28;20450;-75
2022/12/30 05:19:18;;;;;;;1.50;0.60;;;6.80;88.90;;;;;;4975118;28;20634;-75
2022/12/30 05:21:44;;;;;;;1.90;0.80;;;6.80;89.00;;;;;;4974911;28;20478;-75
2022/12/30 05:26:55;;;;;;;1.50;0.60;;;6.90;88.80;;;;;;4975509;28;20414;-75
2022/12/30 05:29:23;;;;;;;1.80;0.90;;;6.80;89.10;;;;;;4975375;28;20446;-75
2022/12/30 05:31:50;;;;;;;1.60;0.63;;;6.80;89.50;;;;;;4974601;28;20501;-75
2022/12/30 05:34:17;;;;;;;1.50;0.60;;;6.80;89.20;;;;;;4974769;28;20939;-75
2022/12/30 05:36:44;;;;;;;1.50;0.60;;;6.80;88.80;;;;;;4974670;28;20952;-75
2022/12/30 05:39:11;;;;;;;1.50;0.60;;;6.90;89.20;;;;;;4974598;28;20509;-75
2022/12/30 05:41:38;;;;;;;1.60;0.70;;;7.00;88.70;;;;;;4974850;28;20501;-75
2022/12/30 05:44:05;;;;;;;1.60;0.70;;;6.90;88.70;;;;;;4974780;28;20482;-75
2022/12/30 05:46:33;;;;;;;1.50;0.60;;;6.90;88.30;;;;;;4974529;28;20936;-75
2022/12/30 05:49:00;;;;;;;1.60;0.70;;;7.00;88.50;;;;;;4974782;28;20450;-75
2022/12/30 05:51:27;;;;;;;1.50;0.63;;;7.10;88.00;;;;;;4975125;28;20497;-76
2022/12/30 05:53:53;;;;;;;1.60;0.60;;;7.20;87.80;;;;;;4974737;28;20458;-75
2022/12/30 05:56:20;;;;;;;1.50;0.60;;;7.00;87.80;;;;;;4974631;28;20501;-75
2022/12/30 05:58:46;;;;;;;1.50;0.60;;;7.10;87.60;;;;;;4974696;28;20506;-75
2022/12/30 06:01:13;;;;;;;1.50;0.80;;;6.90;88.00;;;;;;4974271;28;20977;-76
2022/12/30 06:03:41;;;;;;;2.23;0.70;;;6.90;88.10;;;;;;4975416;28;20493;-76
2022/12/30 06:06:10;;;;;;;1.50;0.70;;;6.80;88.40;;;;;;4974532;28;20458;-76
2022/12/30 06:08:37;;;;;;;1.60;0.70;;;6.80;88.50;;;;;;4974573;28;20446;-75
2022/12/30 06:11:04;;;;;;;1.67;0.80;;;6.80;88.40;;;;;;4974535;28;20478;-75
2022/12/30 06:13:31;;;;;;;1.70;0.70;;;6.90;88.50;;;;;;4974514;28;20803;-75
2022/12/30 06:15:58;;;;;;;1.50;0.60;;;6.70;88.30;;;;;;4974499;28;20802;-75
2022/12/30 06:18:25;;;;;;;1.47;0.60;;;6.70;88.70;;;;;;4976875;28;20453;-75
2022/12/30 06:20:55;;;;;;;1.60;0.60;;;6.70;88.80;;;;;;4978445;28;20556;-75
2022/12/30 06:23:22;;;;;;;1.50;0.63;;;6.70;88.50;;;;;;4978465;28;20537;-75
2022/12/30 06:25:52;;;;;;;1.50;0.60;;;6.80;88.70;;;;;;4978289;28;20489;-75
2022/12/30 06:28:18;;;;;;;1.93;0.77;;;6.80;88.30;;;;;;4978639;28;20450;-75
2022/12/30 06:30:45;;;;;;;2.00;0.67;;;6.80;88.70;;;;;;4978187;28;20474;-75
2022/12/30 06:33:12;;;;;;;1.70;0.70;;;6.90;88.30;;;;;;4978785;28;20509;-75
2022/12/30 06:35:38;;;;;;;1.60;0.70;;;7.00;87.80;;;;;;4978183;28;20454;-75
2022/12/30 06:38:06;;;;;;;1.50;0.60;;;7.00;87.60;;;;;;4978207;28;20446;-76
2022/12/30 06:40:33;;;;;;;1.43;0.60;;;7.00;87.60;;;;;;4978184;28;20497;-75
2022/12/30 06:43:00;;;;;;;1.70;0.70;;;7.10;87.20;;;;;;4977921;28;20453;-75
2022/12/30 06:45:27;;;;;;;1.70;0.60;;;7.20;86.50;;;;;;4977928;28;20481;-75
2022/12/30 06:47:54;;;;;;;2.20;1.07;;;7.20;86.00;;;;;;4978019;28;20496;-75
2022/12/30 06:50:20;;;;;;;1.60;0.90;;;7.00;86.70;;;;;;4977878;28;20864;-75
2022/12/30 06:52:47;;;;;;;1.60;0.70;;;7.00;87.40;;;;;;4977929;28;20459;-76
2022/12/30 06:55:15;;;;;;;1.70;0.73;;;7.20;87.60;;;;;;4977816;28;20505;-76
2022/12/30 06:57:42;;;;;;;1.80;1.00;;;7.30;87.90;;;;;;4977859;28;20458;-76
2022/12/30 07:00:10;;;;;;;1.80;0.80;;;7.40;86.60;;;;;;4977626;28;20454;-76
2022/12/30 07:02:36;;;;;;;1.63;0.70;;;7.30;85.80;;;;;;4977241;28;21058;-76
2022/12/30 07:05:03;;;;;;;3.70;0.90;;;7.30;85.40;;;;;;4977601;28;20602;-76
2022/12/30 07:07:30;;;;;;;1.80;1.00;;;7.10;85.50;;;;;;4977751;28;20505;-76
2022/12/30 07:09:57;;;;;;;1.50;0.60;;;7.20;85.80;;;;;;4977555;28;20505;-76
2022/12/30 07:12:25;;;;;;;1.50;0.70;;;7.20;85.40;;;;;;4977230;28;20454;-76
2022/12/30 07:14:51;;;;;;;1.70;0.70;;;7.10;85.70;;;;;;4977497;28;20446;-76
2022/12/30 07:17:18;;;;;;;5.93;1.20;;;7.00;86.40;;;;;;4977542;28;20454;-76
2022/12/30 07:19:46;;;;;;;1.80;0.90;;;7.00;86.30;;;;;;4977529;28;20454;-76
2022/12/30 07:22:13;;;;;;;1.80;0.80;;;7.10;86.40;;;;;;4977646;28;20983;-75
2022/12/30 07:24:40;;;;;;;1.60;0.80;;;7.10;86.10;;;;;;4977305;28;20482;-70
2022/12/30 07:27:06;;;;;;;1.80;0.70;;;7.00;85.50;;;;;;4977473;28;20497;-69
2022/12/30 07:29:34;;;;;;;1.60;0.70;;;6.90;86.00;;;;;;4977096;28;20446;-75
2022/12/30 07:32:01;;;;;;;1.50;0.70;;;6.80;87.10;;;;;;4977387;28;20517;-75
2022/12/30 07:34:27;;;;;;;1.60;0.60;;;6.80;87.10;;;;;;4978284;28;20450;-75
2022/12/30 07:36:54;;;;;;;2.00;0.80;;;6.90;86.80;;;;;;4977532;28;20574;-75
2022/12/30 07:39:21;;;;;;;1.63;0.80;;;6.90;86.50;;;;;;4977174;28;20446;-75
2022/12/30 07:41:47;;;;;;;2.00;0.90;;;6.90;86.20;;;;;;4976951;28;20466;-75
2022/12/30 07:44:14;;;;;;;2.60;1.70;;;6.90;87.10;;;;;;4976894;28;20450;-75
2022/12/30 07:46:42;;;;;;;2.30;1.40;;;7.00;86.40;;;;;;4976880;28;20458;-75
2022/12/30 07:49:09;;;;;;;2.17;1.30;;;7.10;86.30;;;;;;4976892;28;20513;-76
2022/12/30 07:51:35;;;;;;;2.10;1.30;;;7.20;85.30;;;;;;4976828;28;20520;-76
2022/12/30 07:54:02;;;;;;;1.90;0.90;;;7.40;85.50;;;;;;4976820;28;20485;-76
2022/12/30 07:56:29;;;;;;;1.70;0.90;;;7.80;84.50;;;;;;4976859;28;20450;-76
2022/12/30 07:58:56;;;;;;;1.70;1.00;;;8.20;83.70;;;;;;4976610;28;20862;-76
2022/12/30 08:01:22;;;;;;;2.33;1.23;;;8.50;81.70;;;;;;4977093;28;20474;-76
2022/12/30 08:03:50;;;;;;;1.80;1.23;;;8.70;80.20;;;;;;4978092;28;20435;-77
2022/12/30 08:06:19;;;;;;;1.87;1.07;;;8.80;78.90;;;;;;4979133;28;20541;-76
2022/12/30 08:08:46;;;;;;;2.73;1.20;;;8.90;77.90;;;;;;4978866;28;20505;-75
2022/12/30 08:11:14;;;;;;;2.00;1.30;;;9.00;77.80;;;;;;4977508;28;20473;-75
2022/12/30 08:13:43;;;;;;;1.80;0.90;;;9.00;78.00;;;;;;4977169;28;20450;-76
2022/12/30 08:16:12;;;;;;;2.00;0.90;;;8.90;78.80;;;;;;4977179;28;20493;-75
2022/12/30 08:18:39;;;;;;;2.83;1.50;;;8.80;79.20;;;;;;4977147;28;20446;-76
2022/12/30 08:21:09;;;;;;;2.27;1.53;;;8.50;80.70;;;;;;4977650;28;20529;-75
2022/12/30 08:23:36;;;;;;;1.90;1.10;;;8.60;80.50;;;;;;4976833;28;20434;-75
2022/12/30 08:26:07;;;;;;;2.00;1.20;;;8.70;80.10;;;;;;4976402;28;20490;-75
2022/12/30 08:28:34;;;;;;;2.90;1.50;;;8.70;80.20;;;;;;4976418;28;20482;-75
2022/12/30 08:31:06;;;;;;;2.47;1.63;;;8.90;80.60;;;;;;4985920;28;20480;-75
2022/12/30 08:33:32;;;;;;;2.77;1.90;;;9.00;79.80;;;;;;4990182;28;20450;-76
2022/12/30 08:36:01;;;;;;;3.50;2.60;;;9.10;80.20;;;;;;4998988;28;20931;-74
2022/12/30 08:38:29;;;;;;;2.80;2.13;;;8.90;79.50;;;;;;4993292;28;20446;-76
2022/12/30 08:41:04;;;;;;;3.00;1.87;;;8.80;80.20;;;;;;4982251;28;20501;-76
2022/12/30 08:43:31;;;;;;;3.53;2.10;;;8.50;81.00;;;;;;4980396;28;20427;-75
2022/12/30 08:45:58;;;;;;;2.20;1.40;;;8.40;82.40;;;;;;4978925;28;20486;-76
2022/12/30 08:48:25;;;;;;;2.83;2.40;;;8.60;81.80;;;;;;4980454;28;20880;-76
2022/12/30 08:50:54;;;;;;;3.77;1.50;;;8.90;81.20;;;;;;4978874;28;20521;-76
2022/12/30 08:53:21;;;;;;;2.10;1.20;;;9.10;81.20;;;;;;4978988;28;20533;-76
2022/12/30 08:55:57;;;;;;;2.77;1.83;;;9.50;80.30;;;;;;4978164;28;20474;-77
2022/12/30 08:58:24;;;;;;;2.70;1.80;;;9.50;79.10;;;;;;4977599;28;20434;-76
2022/12/30 09:00:51;;;;;;;3.37;1.20;;;9.70;78.80;;;;;;4977101;28;20474;-76
2022/12/30 09:03:17;;;;;;;1.97;1.20;;;9.50;79.00;;;;;;4977065;28;20466;-77
2022/12/30 09:05:44;;;;;;;2.00;1.10;;;9.00;80.10;;;;;;4976207;28;20486;-76
2022/12/30 09:08:12;;;;;;;1.93;1.20;;;8.90;81.30;;;;;;4976920;28;20455;-76
2022/12/30 09:10:38;;;;;;;1.70;0.90;;;9.00;81.90;;;;;;4976519;28;20501;-76
2022/12/30 09:13:06;;;;;;;1.70;0.80;;;9.40;81.20;;;;;;4976776;28;20458;-76
2022/12/30 09:15:33;;;;;;;2.30;0.80;;;9.40;80.30;;;;;;4976516;28;20477;-76
2022/12/30 09:18:00;;;;;;;2.63;0.90;;;9.50;79.70;;;;;;4977419;28;20481;-76
2022/12/30 09:20:26;;;;;;;1.60;0.80;;;9.40;79.70;;;;;;4976050;28;20455;-76
2022/12/30 09:22:53;;;;;;;1.60;0.90;;;9.40;80.40;;;;;;4975755;28;20497;-76
2022/12/30 09:25:19;;;;;;;1.90;0.80;;;9.10;80.70;;;;;;4975712;28;20586;-77
2022/12/30 09:27:46;;;;;;;2.27;0.90;;;9.00;82.10;;;;;;4976066;28;20454;-76
2022/12/30 09:30:14;;;;;;;2.40;0.70;;;9.00;82.50;;;;;;4975601;28;20869;-76
2022/12/30 09:32:41;;;;;;;1.60;0.70;;;9.20;82.40;;;;;;4975696;28;20483;-76
2022/12/30 09:35:09;;;;;;;1.60;0.70;;;9.10;81.80;;;;;;4975583;28;20447;-76
2022/12/30 09:37:35;;;;;;;1.60;0.70;;;8.90;82.40;;;;;;4975327;28;20943;-76
2022/12/30 09:40:02;;;;;;;1.80;0.80;;;8.90;81.80;;;;;;4975755;28;20453;-76
2022/12/30 09:45:27;;;;;;;1.60;0.70;;;8.90;82.20;;;;;;4976301;28;20901;-75
2022/12/30 09:47:58;;;;;;;1.63;0.73;;;8.90;81.60;;;;;;4975896;28;20806;-76
2022/12/30 09:50:34;;;;;;;1.57;0.70;;;8.80;82.40;;;;;;4975556;28;20489;-75
2022/12/30 09:53:10;;;;;;;1.60;0.70;;;8.90;82.50;;;;;;4975218;28;20477;-76
2022/12/30 09:55:45;;;;;;;1.60;0.83;;;8.90;82.80;;;;;;4975594;28;20773;-75
2022/12/30 09:58:16;;;;;;;1.90;0.77;;;9.00;82.30;;;;;;4975603;28;20433;-75
2022/12/30 10:00:46;;;;;;;1.90;0.90;;;8.90;81.70;;;;;;4975319;28;20894;-75
2022/12/30 10:03:19;;;;;;;1.93;0.80;;;8.90;82.20;;;;;;4975278;28;20939;-76
2022/12/30 10:05:59;;;;;;;1.80;0.93;;;8.80;81.50;;;;;;4974917;28;20545;-76
2022/12/30 10:08:38;;;;;;;3.00;1.33;;;8.80;81.60;;;;;;4974988;28;20517;-75
2022/12/30 10:11:26;;;;;;;2.30;1.23;;;8.70;83.60;;;;;;4974545;28;20472;-76
2022/12/30 10:14:04;;;;;;;2.67;1.57;;;8.80;83.70;;;;;;4975457;28;20485;-75
2022/12/30 10:16:46;;;;;;;2.73;1.80;;;9.10;83.10;;;;;;4974701;28;20494;-74
2022/12/30 10:19:21;;;;;;;1.87;1.10;;;9.00;81.80;;;;;;4974318;28;20438;-75
2022/12/30 10:21:55;;;;;;;1.80;1.00;;;8.90;82.10;;;;;;4974535;28;20871;-76
2022/12/30 10:24:45;;;;;;;1.80;0.93;;;9.10;82.70;;;;;;4974916;28;20441;-75
2022/12/30 10:27:18;;;;;;;1.50;0.80;;;9.30;82.60;;;;;;4974426;28;20466;-76
2022/12/30 10:29:45;;;;;;;1.70;0.90;;;9.50;82.20;;;;;;4974168;28;20880;-77
2022/12/30 10:32:19;;;;;;;1.80;0.87;;;9.70;80.90;;;;;;4974183;28;20501;-77
2022/12/30 10:34:47;;;;;;;2.10;0.90;;;9.90;80.70;;;;;;4974367;28;20437;-76
2022/12/30 10:37:18;;;;;;;1.90;1.00;;;10.00;80.70;;;;;;4974609;28;20446;-76
2022/12/30 10:39:48;;;;;;;1.80;0.90;;;10.00;79.40;;;;;;4974206;28;20438;-76
2022/12/30 10:42:49;;;;;;;1.90;0.80;;;10.00;79.70;;;;;;4974185;28;20525;-76
2022/12/30 10:45:37;;;;;;;2.10;0.90;;;10.20;80.00;;;;;;4974201;28;20531;-77
2022/12/30 10:48:28;;;;;;;1.80;0.90;;;10.20;79.90;;;;;;4974178;28;20445;-77
2022/12/30 10:50:55;;;;;;;2.27;1.10;;;10.20;78.50;;;;;;4973818;28;21038;-77
2022/12/30 10:53:23;;;;;;;2.20;1.00;;;10.20;78.90;;;;;;4974097;28;20461;-76
2022/12/30 10:55:53;;;;;;;1.90;0.90;;;10.20;79.00;;;;;;4974116;28;20457;-76
2022/12/30 10:58:27;;;;;;;1.90;1.07;;;10.20;78.80;;;;;;4973766;28;20857;-76
2022/12/30 11:00:54;;;;;;;2.03;1.00;;;10.70;77.60;;;;;;4974036;28;20536;-75
2022/12/30 11:03:37;;;;;;;1.60;0.80;;;10.80;76.10;;;;;;4974819;28;20473;-77
2022/12/30 11:06:19;;;;;;;1.63;0.90;;;11.00;76.80;;;;;;4978208;28;20469;-75
2022/12/30 11:08:46;;;;;;;1.50;0.80;;;11.60;74.50;;;;;;4977314;28;20935;-74
2022/12/30 11:11:13;;;;;;;1.70;0.80;;;11.40;74.90;;;;;;4977615;28;20544;-76
2022/12/30 11:16:27;;;;;;;2.40;1.13;;;11.40;76.10;;;;;;4977612;28;20489;-74
2022/12/30 11:18:56;;;;;;;1.90;1.00;;;11.30;76.40;;;;;;4977379;28;20446;-76
2022/12/30 11:21:28;;;;;;;1.70;0.80;;;11.10;75.30;;;;;;4977022;28;20993;-75
2022/12/30 11:23:57;;;;;;;3.00;0.93;;;10.80;77.30;;;;;;4977339;28;20454;-75
2022/12/30 11:26:26;;;;;;;1.63;0.80;;;10.40;77.40;;;;;;4977117;28;20478;-75
2022/12/30 11:28:56;;;;;;;1.73;0.90;;;10.20;79.20;;;;;;4976927;28;20863;-75
2022/12/30 11:31:30;;;;;;;1.90;1.10;;;10.20;79.80;;;;;;4976842;28;20881;-74
2022/12/30 11:34:00;;;;;;;2.03;0.90;;;10.30;79.90;;;;;;4977197;28;20439;-74
2022/12/30 11:36:35;;;;;;;2.20;0.90;;;10.50;78.70;;;;;;4976854;28;20859;-74
2022/12/30 11:39:24;;;;;;;1.60;0.90;;;10.30;79.50;;;;;;4977098;28;20532;-74
2022/12/30 11:41:52;;;;;;;2.17;1.00;;;10.30;79.60;;;;;;4976837;28;20561;-74
2022/12/30 11:44:23;;;;;;;2.00;1.00;;;10.40;79.00;;;;;;4976958;28;20454;-75
2022/12/30 11:46:52;;;;;;;2.20;0.90;;;10.40;78.30;;;;;;4976730;28;20540;-74
2022/12/30 11:49:27;;;;;;;1.73;0.93;;;10.40;79.60;;;;;;4976829;28;20509;-75
2022/12/30 11:51:57;;;;;;;2.50;1.30;;;10.60;79.30;;;;;;4976766;28;20480;-74
2022/12/30 11:54:25;;;;;;;2.20;1.13;;;10.70;78.90;;;;;;4976744;28;20537;-75
2022/12/30 11:56:54;;;;;;;2.13;1.10;;;10.90;78.00;;;;;;4976511;28;20822;-75
2022/12/30 11:59:24;;;;;;;1.90;1.10;;;10.80;77.90;;;;;;4976680;28;20503;-74
2022/12/30 12:01:54;;;;;;;2.87;1.10;;;10.80;78.20;;;;;;4976434;28;20478;-74
2022/12/30 12:04:36;;;;;;;1.70;0.87;;;10.70;78.30;;;;;;4976541;28;20458;-76
2022/12/30 12:07:04;;;;;;;1.70;0.80;;;10.70;78.40;;;;;;4976385;28;20818;-75
2022/12/30 12:09:38;;;;;;;2.47;0.80;;;10.50;78.90;;;;;;4976262;28;20866;-76
2022/12/30 12:12:11;;;;;;;1.60;0.70;;;10.50;79.80;;;;;;4976861;28;20525;-75
2022/12/30 12:14:52;;;;;;;1.60;0.80;;;10.30;78.80;;;;;;4976504;28;20501;-75
2022/12/30 12:17:33;;;;;;;1.60;0.80;;;10.20;79.70;;;;;;4976443;28;20465;-75
2022/12/30 12:20:06;;;;;;;2.17;1.50;;;10.40;81.10;;;;;;4976415;28;20438;-74
2022/12/30 12:22:39;;;;;;;2.10;1.10;;;10.30;79.60;;;;;;4976222;28;20478;-75
2022/12/30 12:25:16;;;;;;;2.80;1.20;;;10.30;80.20;;;;;;4976300;28;20447;-74
2022/12/30 12:27:43;;;;;;;4.03;2.50;;;10.50;81.40;;;;;;4975832;28;20932;-75
2022/12/30 12:30:12;;;;;;;2.07;1.20;;;10.70;79.30;;;;;;4976276;28;20557;-75
2022/12/30 12:32:59;;;;;;;1.80;1.00;;;10.70;80.40;;;;;;4976105;28;20470;-75
2022/12/30 12:35:33;;;;;;;2.10;1.27;;;10.70;78.80;;;;;;4976277;28;20450;-75
2022/12/30 12:38:10;;;;;;;2.27;1.40;;;10.80;77.60;;;;;;4978630;28;20845;-75
2022/12/30 12:40:55;;;;;;;2.77;1.53;;;10.80;77.70;;;;;;4977954;28;20484;-74
2022/12/30 12:43:26;;;;;;;2.43;1.73;;;10.50;78.50;;;;;;4978376;28;20434;-76
2022/12/30 12:46:11;;;;;;;2.30;1.60;;;10.40;79.20;;;;;;4979482;28;20473;-76
2022/12/30 12:48:58;;;;;;;2.17;1.30;;;10.40;79.10;;;;;;4978730;28;20439;-75
2022/12/30 12:51:40;;;;;;;1.70;0.90;;;10.40;79.00;;;;;;4977080;28;20832;-74
2022/12/30 12:54:50;;;;;;;1.50;0.80;;;10.40;79.50;;;;;;4976761;28;20941;-75
2022/12/30 12:57:28;;;;;;;1.97;1.13;;;10.20;80.50;;;;;;4977461;28;20446;-76
2022/12/30 13:00:08;;;;;;;1.70;0.80;;;10.30;80.10;;;;;;4977909;28;20501;-76
2022/12/30 13:03:01;;;;;;;2.10;0.90;;;10.30;79.80;;;;;;4977713;28;20485;-76
2022/12/30 13:05:34;;;;;;;2.13;0.80;;;10.30;79.80;;;;;;4977561;28;20454;-76
2022/12/30 13:08:12;;;;;;;1.83;0.80;;;10.40;78.90;;;;;;4977209;28;20481;-75
2022/12/30 13:10:44;;;;;;;2.40;1.30;;;10.50;79.20;;;;;;4976965;28;20418;-75
2022/12/30 13:13:18;;;;;;;1.70;1.10;;;10.60;78.20;;;;;;4977464;28;20469;-76
2022/12/30 13:15:49;;;;;;;1.80;1.00;;;10.70;78.40;;;;;;4976975;28;20443;-77
2022/12/30 13:18:19;;;;;;;1.90;1.00;;;10.40;79.00;;;;;;4977424;28;20422;-76
2022/12/30 13:20:49;;;;;;;2.53;1.20;;;10.40;79.80;;;;;;4980595;28;20474;-77
2022/12/30 13:23:21;;;;;;;2.10;1.20;;;10.60;80.10;;;;;;4979335;28;20947;-77
2022/12/30 13:25:53;;;;;;;1.90;1.00;;;10.40;80.50;;;;;;4979328;28;20446;-76
2022/12/30 13:28:23;;;;;;;1.70;0.97;;;10.40;80.70;;;;;;4982064;28;20473;-76
2022/12/30 13:31:00;;;;;;;2.53;1.40;;;10.60;79.70;;;;;;4982573;28;20909;-75
2022/12/30 13:33:37;;;;;;;1.80;1.10;;;10.70;80.10;;;;;;4984207;28;20434;-76
2022/12/30 13:36:09;;;;;;;2.63;1.30;;;10.50;79.40;;;;;;4984957;28;20442;-74
2022/12/30 13:38:59;;;;;;;2.50;1.20;;;10.60;79.30;;;;;;4981779;28;20431;-77
2022/12/30 13:41:43;;;;;;;1.90;1.10;;;10.50;80.60;;;;;;4983794;28;20473;-77
2022/12/30 13:44:15;;;;;;;2.00;1.10;;;10.30;80.10;;;;;;4985068;28;20426;-78
2022/12/30 13:46:49;;;;;;;1.70;0.90;;;10.30;80.30;;;;;;4983171;28;20478;-77
2022/12/30 13:49:24;;;;;;;1.97;1.00;;;10.40;80.30;;;;;;4983320;28;20451;-76
2022/12/30 13:51:57;;;;;;;1.70;1.07;;;10.50;80.20;;;;;;4980770;28;20508;-75
2022/12/30 13:54:26;;;;;;;2.00;1.20;;;10.50;79.30;;;;;;4980077;28;20457;-76
2022/12/30 13:56:54;;;;;;;1.77;0.93;;;10.50;79.60;;;;;;4980189;28;20458;-76
2022/12/30 13:59:26;;;;;;;1.90;1.00;;;10.60;79.40;;;;;;4979099;28;20454;-76
2022/12/30 14:02:27;;;;;;;1.87;1.07;;;10.40;79.90;;;;;;4979796;28;21034;-74
2022/12/30 14:04:55;;;;;;;1.90;1.20;;;10.40;79.90;;;;;;4981203;28;20466;-75
2022/12/30 14:07:48;;;;;;;3.03;1.17;;;10.20;80.70;;;;;;4979774;28;20494;-76
2022/12/30 14:10:42;;;;;;;1.90;1.10;;;10.10;81.50;;;;;;4980879;28;20457;-76
2022/12/30 14:13:32;;;;;;;3.40;1.23;;;9.90;82.20;;;;;;4974081;28;20476;-77
2022/12/30 14:16:01;;;;;;;2.00;1.20;;;10.10;81.90;;;;;;4980714;28;20437;-76
2022/12/30 14:18:37;;;;;;;2.60;1.37;;;10.00;81.90;;;;;;4979228;28;20450;-77
2022/12/30 14:21:08;;;;;;;2.97;1.20;;;10.00;82.60;;;;;;4979156;28;20816;-76
2022/12/30 14:23:48;;;;;;;2.30;1.20;;;9.90;83.30;;;;;;4983738;28;20850;-77
2022/12/30 14:26:47;;;;;;;3.17;1.27;;;9.90;83.30;;;;;;4983262;28;20450;-76
2022/12/30 14:29:22;;;;;;;1.90;1.20;;;10.00;83.30;;;;;;4980113;28;20426;-75
2022/12/30 14:31:52;;;;;;;2.70;1.73;;;10.10;83.60;;;;;;4980818;28;20462;-75
2022/12/30 14:34:24;;;;;;;2.90;1.80;;;10.00;83.10;;;;;;4981805;28;20442;-76
2022/12/30 14:36:59;;;;;;;5.27;1.70;;;9.90;83.90;;;;;;4980704;28;20427;-75
2022/12/30 14:39:26;;;;;;;2.50;1.80;;;9.90;84.00;;;;;;4982622;28;20492;-77
2022/12/30 14:41:56;;;;;;;2.63;1.77;;;9.80;84.70;;;;;;4985916;28;20971;-76
2022/12/30 14:44:25;;;;;;;3.33;2.27;;;9.90;84.20;;;;;;4985396;28;20474;-77
2022/12/30 14:46:54;;;;;;;4.23;2.70;;;9.80;84.50;;;;;;4981953;28;20999;-76
2022/12/30 14:49:37;;;;;;;4.10;2.60;;;9.80;85.20;;;;;;4983135;28;20457;-76
2022/12/30 14:52:14;;;;;;;3.27;2.50;;;9.90;84.90;;;;;;4984885;28;20984;-77
2022/12/30 14:54:45;;;;;;;3.70;2.47;;;9.90;84.70;;;;;;4984014;28;20537;-77
2022/12/30 14:57:22;;;;;;;3.90;2.83;;;9.80;84.50;;;;;;4983311;28;20427;-77
2022/12/30 14:59:56;;;;;;;3.00;2.17;;;9.80;85.30;;;;;;4984069;28;20431;-76
2022/12/30 15:02:25;;;;;;;3.07;2.23;;;9.70;85.60;;;;;;4983900;28;20477;-76
2022/12/30 15:04:53;;;;;;;3.23;1.90;;;9.70;85.90;;;;;;4986217;28;20586;-78
2022/12/30 15:07:23;;;;;;;2.73;2.00;;;9.60;86.10;;;;;;4985251;28;20499;-77
2022/12/30 15:09:51;;;;;;;2.67;1.80;;;9.60;86.70;;;;;;4986205;28;20458;-77
2022/12/30 15:12:22;;;;;;;3.10;2.00;;;9.50;87.00;;;;;;4985396;28;20467;-76
2022/12/30 15:14:52;;;;;;;2.37;1.37;;;9.50;86.60;;;;;;4986007;28;20418;-76
2022/12/30 15:17:31;;;;;;;3.20;1.93;;;9.60;87.00;;;;;;4984611;28;20459;-77
2022/12/30 15:20:00;;;;;;;2.10;1.40;;;9.60;87.10;;;;;;4984315;28;20440;-77
2022/12/30 15:22:28;;;;;;;2.23;1.37;;;9.60;86.90;;;;;;4983676;28;20480;-76
2022/12/30 15:24:55;;;;;;;2.53;1.50;;;9.60;86.90;;;;;;4982678;28;20451;-76
2022/12/30 15:27:26;;;;;;;3.27;2.50;;;9.60;87.00;;;;;;4981749;28;20490;-74
2022/12/30 15:29:53;;;;;;;4.37;1.50;;;9.50;87.50;;;;;;4981271;28;20435;-75
2022/12/30 15:32:31;;;;;;;1.70;0.87;;;9.50;87.60;;;;;;4981427;28;20489;-75
2022/12/30 15:35:07;;;;;;;1.90;1.03;;;9.50;88.00;;;;;;4982990;28;20433;-75
2022/12/30 15:37:35;;;;;;;3.10;1.40;;;9.50;87.60;;;;;;4983928;28;20431;-75
2022/12/30 15:40:06;;;;;;;1.87;1.00;;;9.60;88.00;;;;;;4983309;28;20446;-74
2022/12/30 15:42:38;;;;;;;2.83;1.03;;;9.60;87.80;;;;;;4981855;28;20470;-72
2022/12/30 15:45:20;;;;;;;2.27;1.30;;;9.70;87.10;;;;;;4982214;28;20451;-75
2022/12/30 15:47:46;;;;;;;2.10;0.97;;;9.70;87.20;;;;;;4980618;28;20477;-75
2022/12/30 15:50:33;;;;;;;1.63;0.97;;;9.80;86.90;;;;;;4980492;28;20450;-77
2022/12/30 15:53:02;;;;;;;2.20;1.07;;;9.70;87.20;;;;;;4980957;28;20446;-74
2022/12/30 15:55:32;;;;;;;1.80;0.80;;;9.70;87.60;;;;;;4980646;28;20442;-76
2022/12/30 15:58:01;;;;;;;1.70;1.00;;;9.70;87.90;;;;;;4980761;28;20838;-76
2022/12/30 16:00:28;;;;;;;1.60;0.90;;;9.70;88.20;;;;;;4982517;28;20534;-75
2022/12/30 16:02:56;;;;;;;1.80;0.93;;;9.70;88.20;;;;;;4980227;28;20466;-75
2022/12/30 16:05:26;;;;;;;1.60;0.90;;;9.80;87.90;;;;;;4980186;28;20459;-75
2022/12/30 16:07:52;;;;;;;2.00;1.00;;;9.80;87.60;;;;;;4978399;28;20486;-74
2022/12/30 16:10:27;;;;;;;1.80;0.90;;;9.80;88.00;;;;;;4979485;28;20458;-72
2022/12/30 16:12:55;;;;;;;1.70;0.90;;;9.70;88.00;;;;;;4977954;28;20438;-72
2022/12/30 16:15:34;;;;;;;1.73;0.90;;;9.80;87.90;;;;;;4978767;28;20454;-74
2022/12/30 16:18:11;;;;;;;1.57;0.80;;;9.80;87.90;;;;;;4978017;28;20427;-76
2022/12/30 16:20:45;;;;;;;1.60;0.90;;;9.80;88.40;;;;;;4978547;28;20442;-74
2022/12/30 16:23:15;;;;;;;1.50;0.80;;;9.80;87.60;;;;;;4977864;28;20415;-75
2022/12/30 16:25:42;;;;;;;1.60;0.80;;;9.90;87.50;;;;;;4978479;28;20546;-75
2022/12/30 16:28:32;;;;;;;1.60;0.80;;;9.90;87.50;;;;;;4977233;28;20497;-75
2022/12/30 16:31:00;;;;;;;1.60;0.80;;;9.90;87.40;;;;;;4977461;28;20541;-75
2022/12/30 16:33:27;;;;;;;1.70;0.80;;;10.00;86.90;;;;;;4978608;28;20458;-76
2022/12/30 16:35:59;;;;;;;1.90;1.03;;;10.00;87.30;;;;;;4977654;28;20454;-76
2022/12/30 16:38:29;;;;;;;1.90;1.10;;;10.00;86.90;;;;;;4976547;28;20849;-75
2022/12/30 16:40:56;;;;;;;1.67;0.90;;;10.00;86.70;;;;;;4976827;28;20470;-77
2022/12/30 16:43:23;;;;;;;1.60;0.90;;;10.00;86.90;;;;;;4976259;28;20857;-76
2022/12/30 16:45:50;;;;;;;1.70;1.00;;;10.00;86.80;;;;;;4975856;28;20859;-74
2022/12/30 16:48:18;;;;;;;1.70;1.00;;;10.00;86.80;;;;;;4976426;28;20577;-75
2022/12/30 16:50:46;;;;;;;1.70;0.87;;;10.10;86.70;;;;;;4976352;28;20470;-76
2022/12/30 16:53:28;;;;;;;1.80;0.97;;;10.10;86.80;;;;;;4976655;28;20450;-76
2022/12/30 16:55:55;;;;;;;1.70;0.80;;;10.10;86.70;;;;;;4976290;28;20438;-75
2022/12/30 16:58:22;;;;;;;2.10;0.80;;;10.20;86.70;;;;;;4976252;28;20441;-75
2022/12/30 17:00:52;;;;;;;2.40;1.00;;;10.20;86.70;;;;;;4975626;28;20478;-73
2022/12/30 17:03:22;;;;;;;2.10;0.80;;;10.20;86.90;;;;;;4975509;28;20549;-74
2022/12/30 17:05:49;;;;;;;2.83;1.10;;;10.20;87.10;;;;;;4976007;28;20477;-76
2022/12/30 17:08:18;;;;;;;1.83;1.00;;;10.20;87.40;;;;;;4975687;28;20478;-75
2022/12/30 17:10:54;;;;;;;2.00;1.30;;;10.20;87.60;;;;;;4975710;28;20475;-76
2022/12/30 17:13:25;;;;;;;1.53;0.90;;;10.20;87.80;;;;;;4975329;28;20438;-75
2022/12/30 17:15:51;;;;;;;1.60;0.80;;;10.20;88.20;;;;;;4976367;28;20454;-74
2022/12/30 17:18:21;;;;;;;1.90;0.90;;;10.20;88.30;;;;;;4975428;28;20504;-75
2022/12/30 17:20:52;;;;;;;1.70;0.70;;;10.20;88.70;;;;;;4975302;28;20560;-74